createdAt,value
2023-05-21T10:52:08.952Z,21.14
2023-05-21T10:54:54.277Z,21.33
2023-05-21T10:57:26.366Z,21.56
2023-05-21T10:59:53.407Z,21.48
2023-05-21T11:02:21.011Z,21.29
2023-05-21T11:04:49.046Z,21.41
2023-05-21T11:07:24.518Z,21.64
2023-05-21T11:09:51.020Z,21.87
2023-05-21T11:12:17.971Z,21.81
2023-05-21T11:14:58.010Z,21.47
2023-05-21T11:17:39.349Z,21.32
2023-05-21T11:20:11.628Z,21.55
2023-05-21T11:22:37.990Z,21.85
2023-05-21T11:25:04.962Z,21.92
2023-05-21T11:27:35.873Z,21.79
2023-05-21T11:30:08.148Z,21.80
2023-05-21T11:33:13.619Z,21.90
2023-05-21T11:35:59.923Z,22.02
2023-05-21T11:38:31.584Z,21.98
2023-05-21T11:41:03.646Z,22.07
2023-05-21T11:43:30.946Z,22.06
2023-05-21T11:45:57.756Z,22.10
2023-05-21T11:48:29.428Z,22.02
2023-05-21T11:50:57.420Z,22.00
2023-05-21T11:53:23.953Z,22.06
2023-05-21T11:55:57.160Z,22.11
2023-05-21T11:58:23.673Z,22.23
2023-05-21T12:00:51.348Z,22.17
2023-05-21T12:03:18.015Z,22.18
2023-05-21T12:05:48.845Z,22.12
2023-05-21T12:08:27.729Z,22.15
2023-05-21T12:11:01.771Z,22.26
2023-05-21T12:13:28.544Z,22.11
2023-05-21T12:15:55.050Z,22.15
2023-05-21T12:18:21.993Z,22.34
2023-05-21T12:20:48.497Z,22.42
2023-05-21T12:23:23.774Z,22.49
2023-05-21T12:25:51.149Z,22.55
2023-05-21T12:28:17.637Z,22.65
2023-05-21T12:30:44.247Z,22.60
2023-05-21T12:33:12.049Z,22.60
2023-05-21T12:35:38.615Z,22.50
2023-05-21T12:38:06.926Z,22.48
2023-05-21T12:40:38.304Z,22.39
2023-05-21T12:43:06.090Z,22.48
2023-05-21T12:45:33.126Z,22.50
2023-05-21T12:48:03.176Z,22.48
2023-05-21T12:50:29.773Z,22.64
2023-05-21T12:52:58.398Z,22.73
2023-05-21T12:55:28.492Z,22.63
2023-05-21T12:58:05.583Z,22.55
2023-05-21T13:00:32.803Z,22.47
2023-05-21T13:03:00.975Z,22.52
2023-05-21T13:05:27.569Z,22.53
2023-05-21T13:07:53.961Z,22.50
2023-05-21T13:10:20.499Z,22.50
2023-05-21T13:12:46.974Z,22.46
2023-05-21T13:15:15.548Z,22.55
2023-05-21T13:17:42.120Z,22.53
2023-05-21T13:20:15.668Z,22.54
2023-05-21T13:22:46.390Z,22.57
2023-05-21T13:25:18.181Z,22.65
2023-05-21T13:27:44.972Z,22.59
2023-05-21T13:30:11.880Z,22.56
2023-05-21T13:32:39.631Z,22.62
2023-05-21T13:35:06.972Z,22.69
2023-05-21T13:37:36.099Z,22.68
2023-05-21T13:40:04.728Z,22.65
2023-05-21T13:42:31.200Z,22.58
2023-05-21T13:44:58.146Z,22.69
2023-05-21T13:47:24.787Z,22.82
2023-05-21T13:49:51.394Z,22.85
2023-05-21T13:52:17.857Z,22.82
2023-05-21T13:54:44.265Z,22.85
2023-05-21T13:57:10.797Z,22.88
2023-05-21T13:59:37.354Z,22.91
2023-05-21T14:02:04.033Z,22.94
2023-05-21T14:04:30.694Z,22.91
2023-05-21T14:06:57.235Z,22.90
2023-05-21T14:09:26.976Z,22.88
2023-05-21T14:11:54.969Z,22.85
2023-05-21T14:14:21.851Z,22.88
2023-05-21T14:16:49.187Z,22.90
2023-05-21T14:19:16.448Z,22.89
2023-05-21T14:21:43.211Z,22.94
2023-05-21T14:24:10.282Z,22.96
2023-05-21T14:26:42.940Z,22.93
2023-05-21T14:29:10.097Z,22.94
2023-05-21T14:31:37.822Z,23.02
2023-05-21T14:34:05.165Z,23.08
2023-05-21T14:36:32.447Z,23.06
2023-05-21T14:38:59.124Z,23.08
2023-05-21T14:41:26.932Z,23.07
2023-05-21T14:43:53.916Z,22.98
2023-05-21T14:46:20.657Z,23.02
2023-05-21T14:48:47.108Z,23.08
2023-05-21T14:51:14.284Z,23.17
2023-05-21T14:53:40.745Z,23.14
2023-05-21T14:56:07.960Z,23.06
2023-05-21T14:58:34.404Z,23.11
2023-05-21T15:01:02.512Z,23.14
2023-05-21T15:03:28.962Z,23.18
2023-05-21T15:05:55.573Z,23.07
2023-05-21T15:08:22.658Z,23.05
2023-05-21T15:10:49.269Z,23.03
2023-05-21T15:13:15.704Z,23.04
2023-05-21T15:15:42.139Z,23.10
2023-05-21T15:18:08.912Z,23.14
2023-05-21T15:20:35.413Z,23.24
2023-05-21T15:25:31.220Z,23.21
2023-05-21T15:27:57.673Z,23.19
2023-05-21T15:30:25.378Z,23.15
2023-05-21T15:32:51.959Z,23.19
2023-05-21T15:35:18.681Z,23.15
2023-05-21T15:37:46.077Z,23.16
2023-05-21T15:40:12.942Z,23.14
2023-05-21T15:42:39.281Z,23.15
2023-05-21T15:45:06.326Z,23.12
2023-05-21T15:47:32.968Z,23.18
2023-05-21T15:50:00.469Z,23.28
2023-05-21T15:52:27.156Z,23.34
2023-05-21T15:54:54.754Z,23.44
2023-05-21T15:57:21.202Z,23.52
2023-05-21T15:59:47.719Z,23.71
2023-05-21T16:02:14.193Z,23.81
2023-05-21T16:04:40.650Z,23.87
2023-05-21T16:07:07.125Z,24.03
2023-05-21T16:09:33.742Z,24.10
2023-05-21T16:12:00.821Z,24.16
2023-05-21T16:14:29.174Z,24.27
2023-05-21T16:16:55.873Z,24.31
2023-05-21T16:19:22.318Z,24.48
2023-05-21T16:21:48.753Z,24.56
2023-05-21T16:24:15.461Z,24.92
2023-05-21T16:26:41.862Z,25.59
2023-05-21T16:29:08.346Z,26.16
2023-05-21T16:31:34.906Z,26.84
2023-05-21T16:34:01.344Z,27.51
2023-05-21T16:36:27.969Z,27.97
2023-05-21T16:38:54.419Z,28.15
2023-05-21T16:41:21.650Z,28.46
2023-05-21T16:43:48.222Z,28.51
2023-05-21T16:46:14.729Z,28.77
2023-05-21T16:48:42.612Z,29.32
2023-05-21T16:51:09.106Z,29.52
2023-05-21T16:53:35.610Z,29.95
2023-05-21T16:56:01.973Z,30.12
2023-05-21T16:58:28.428Z,29.78
2023-05-21T17:00:54.851Z,29.85
2023-05-21T17:03:21.393Z,29.76
2023-05-21T17:05:47.874Z,29.93
2023-05-21T17:08:14.309Z,30.04
2023-05-21T17:10:40.691Z,30.24
2023-05-21T17:13:20.912Z,30.16
2023-05-21T17:15:48.587Z,30.24
2023-05-21T17:18:15.298Z,29.97
2023-05-21T17:20:43.917Z,29.82
2023-05-21T17:23:11.473Z,29.76
2023-05-21T17:25:38.229Z,29.18
2023-05-21T17:28:04.953Z,28.67
2023-05-21T17:30:31.393Z,28.77
2023-05-21T17:32:58.265Z,28.68
2023-05-21T17:35:24.795Z,27.89
2023-05-21T17:37:53.203Z,27.51
2023-05-21T17:40:21.258Z,27.22
2023-05-21T17:42:47.872Z,27.03
2023-05-21T17:45:14.428Z,26.21
2023-05-21T17:47:40.968Z,25.58
2023-05-21T17:50:08.155Z,25.08
2023-05-21T17:52:34.593Z,24.61
2023-05-21T17:55:01.692Z,24.19
2023-05-21T17:57:28.077Z,23.88
2023-05-21T17:59:55.111Z,23.68
2023-05-21T18:02:23.339Z,23.55
2023-05-21T18:04:49.910Z,23.39
2023-05-21T18:07:16.536Z,23.28
2023-05-21T18:09:42.955Z,23.22
2023-05-21T18:12:09.422Z,23.14
2023-05-21T18:14:35.852Z,23.02
2023-05-21T18:17:02.626Z,22.94
2023-05-21T18:19:30.431Z,22.84
2023-05-21T18:21:57.154Z,22.67
2023-05-21T18:24:23.577Z,22.59
2023-05-21T18:26:50.012Z,22.59
2023-05-21T18:29:16.403Z,22.57
2023-05-21T18:31:45.787Z,22.37
2023-05-21T18:34:12.391Z,22.37
2023-05-21T18:36:39.085Z,22.32
2023-05-21T18:39:07.016Z,22.25
2023-05-21T18:41:34.039Z,22.22
2023-05-21T18:44:03.576Z,22.19
2023-05-21T18:46:30.120Z,22.13
2023-05-21T18:48:56.598Z,22.03
2023-05-21T18:51:23.025Z,21.97
2023-05-21T18:53:49.481Z,21.89
2023-05-21T18:56:16.259Z,21.82
2023-05-21T18:58:42.759Z,21.78
2023-05-21T19:01:09.198Z,21.74
2023-05-21T19:03:35.726Z,21.66
2023-05-21T19:06:02.295Z,21.56
2023-05-21T19:08:28.640Z,21.48
2023-05-21T19:10:55.149Z,21.50
2023-05-21T19:13:23.224Z,21.44
2023-05-21T19:15:49.763Z,21.31
2023-05-21T19:18:17.171Z,21.24
2023-05-21T19:20:43.727Z,21.11
2023-05-21T19:23:10.152Z,21.11
2023-05-21T19:25:36.536Z,21.13
2023-05-21T19:28:03.083Z,21.09
2023-05-21T19:30:29.491Z,21.01
2023-05-21T19:32:56.330Z,20.87
2023-05-21T19:35:22.881Z,20.82
2023-05-21T19:37:49.207Z,20.69
2023-05-21T19:40:17.558Z,20.53
2023-05-21T19:42:44.512Z,20.54
2023-05-21T19:45:11.733Z,20.51
2023-05-21T19:47:40.904Z,20.52
2023-05-21T19:50:08.023Z,20.53
2023-05-21T19:52:34.478Z,20.49
2023-05-21T19:55:04.729Z,20.39
2023-05-21T19:57:32.565Z,20.37
2023-05-21T19:59:59.415Z,20.32
2023-05-21T20:02:28.460Z,20.20
2023-05-21T20:04:56.885Z,20.16
2023-05-21T20:07:23.715Z,20.08
2023-05-21T20:09:50.455Z,20.06
2023-05-21T20:12:16.839Z,19.94
2023-05-21T20:14:46.600Z,19.93
2023-05-21T20:17:13.587Z,19.88
2023-05-21T20:19:40.030Z,19.79
2023-05-21T20:22:06.512Z,19.73
2023-05-21T20:24:32.957Z,19.76
2023-05-21T20:27:01.604Z,19.65
2023-05-21T20:29:28.765Z,19.58
2023-05-21T20:31:55.435Z,19.54
2023-05-21T20:34:21.823Z,19.44
2023-05-21T20:36:48.422Z,19.33
2023-05-21T20:39:15.577Z,19.31
2023-05-21T20:41:44.531Z,19.27
2023-05-21T20:44:11.139Z,19.20
2023-05-21T20:46:38.310Z,19.16
2023-05-21T20:49:05.164Z,19.19
2023-05-21T20:51:31.661Z,19.10
2023-05-21T20:53:58.048Z,19.07
2023-05-21T20:56:40.801Z,19.08
2023-05-21T20:59:10.483Z,19.13
2023-05-21T21:01:37.955Z,19.14
2023-05-21T21:04:04.998Z,19.10
2023-05-21T21:06:31.806Z,19.01
2023-05-21T21:08:58.385Z,18.99
2023-05-21T21:11:25.024Z,18.96
2023-05-21T21:13:51.840Z,18.94
2023-05-21T21:16:18.584Z,18.88
2023-05-21T21:18:46.796Z,18.86
2023-05-21T21:21:13.406Z,18.87
2023-05-21T21:23:39.850Z,18.88
2023-05-21T21:26:06.301Z,18.83
2023-05-21T21:28:32.694Z,18.83
2023-05-21T21:30:59.103Z,18.77
2023-05-21T21:33:26.668Z,18.73
2023-05-21T21:35:53.210Z,18.72
2023-05-21T21:38:19.565Z,18.69
2023-05-21T21:40:46.035Z,18.66
2023-05-21T21:43:12.471Z,18.64
2023-05-21T21:45:38.885Z,18.60
2023-05-21T21:48:05.772Z,18.62
2023-05-21T21:50:32.414Z,18.63
2023-05-21T21:52:59.834Z,18.63
2023-05-21T21:55:26.298Z,18.59
2023-05-21T21:57:52.701Z,18.49
2023-05-21T22:00:19.292Z,18.48
2023-05-21T22:02:46.625Z,18.40
2023-05-21T22:05:14.833Z,18.35
2023-05-21T22:07:42.625Z,18.33
2023-05-21T22:10:09.693Z,18.29
2023-05-21T22:12:36.143Z,18.26
2023-05-21T22:15:06.612Z,18.23
2023-05-21T22:17:33.979Z,18.17
2023-05-21T22:20:01.179Z,18.13
2023-05-21T22:22:27.656Z,18.13
2023-05-21T22:24:54.351Z,18.07
2023-05-21T22:27:20.903Z,18.08
2023-05-21T22:29:47.554Z,18.05
2023-05-21T22:32:13.979Z,17.98
2023-05-21T22:34:41.777Z,17.93
2023-05-21T22:37:08.353Z,17.90
2023-05-21T22:39:34.755Z,17.92
2023-05-21T22:42:01.968Z,17.85
2023-05-21T22:44:28.398Z,17.80
2023-05-21T22:46:56.442Z,17.82
2023-05-21T22:49:23.040Z,17.77
2023-05-21T22:51:50.882Z,17.66
2023-05-21T22:54:17.431Z,17.63
2023-05-21T22:56:44.305Z,17.68
2023-05-21T22:59:10.878Z,17.72
2023-05-21T23:01:38.200Z,17.72
2023-05-21T23:04:04.764Z,17.65
2023-05-21T23:06:31.706Z,17.66
2023-05-21T23:08:58.130Z,17.66
2023-05-21T23:11:24.662Z,17.68
2023-05-21T23:13:51.059Z,17.65
2023-05-21T23:16:17.490Z,17.60
2023-05-21T23:18:43.863Z,17.56
2023-05-21T23:21:10.488Z,17.53
2023-05-21T23:23:36.896Z,17.41
2023-05-21T23:26:03.321Z,17.37
2023-05-21T23:28:29.823Z,17.44
2023-05-21T23:30:56.325Z,17.51
2023-05-21T23:33:22.743Z,17.55
2023-05-21T23:35:49.147Z,17.55
2023-05-21T23:38:15.680Z,17.56
2023-05-21T23:40:42.283Z,17.53
2023-05-21T23:43:08.756Z,17.48
2023-05-21T23:45:35.393Z,17.44
2023-05-21T23:48:01.826Z,17.38
2023-05-21T23:50:28.270Z,17.34
2023-05-21T23:52:54.942Z,17.31
2023-05-21T23:55:21.273Z,17.31
